sensor_id;sensor_type;location;lat;lon;timestamp;temperature;humidity
26909;DHT22;14477;51.038;4.588;2022-08-20T00:00:18;22.10;86.80
26909;DHT22;14477;51.038;4.588;2022-08-20T00:02:56;22.10;86.90
26909;DHT22;14477;51.038;4.588;2022-08-20T00:05:26;22.00;87.00
26909;DHT22;14477;51.038;4.588;2022-08-20T00:07:52;22.00;87.00
26909;DHT22;14477;51.038;4.588;2022-08-20T00:10:18;21.90;87.00
26909;DHT22;14477;51.038;4.588;2022-08-20T00:12:46;21.90;87.10
26909;DHT22;14477;51.038;4.588;2022-08-20T00:15:14;21.90;87.20
26909;DHT22;14477;51.038;4.588;2022-08-20T00:17:50;21.80;87.30
26909;DHT22;14477;51.038;4.588;2022-08-20T00:20:17;21.80;87.50
26909;DHT22;14477;51.038;4.588;2022-08-20T00:22:43;21.70;87.50
26909;DHT22;14477;51.038;4.588;2022-08-20T00:25:10;21.70;87.60
26909;DHT22;14477;51.038;4.588;2022-08-20T00:27:36;21.70;87.60
26909;DHT22;14477;51.038;4.588;2022-08-20T00:30:04;21.60;87.50
26909;DHT22;14477;51.038;4.588;2022-08-20T00:32:31;21.60;87.60
26909;DHT22;14477;51.038;4.588;2022-08-20T00:34:57;21.50;87.60
26909;DHT22;14477;51.038;4.588;2022-08-20T00:37:22;21.50;87.60
26909;DHT22;14477;51.038;4.588;2022-08-20T00:39:48;21.50;87.70
26909;DHT22;14477;51.038;4.588;2022-08-20T00:42:14;21.40;87.90
26909;DHT22;14477;51.038;4.588;2022-08-20T00:44:45;21.40;88.10
26909;DHT22;14477;51.038;4.588;2022-08-20T00:47:11;21.40;88.30
26909;DHT22;14477;51.038;4.588;2022-08-20T00:49:37;21.30;88.30
26909;DHT22;14477;51.038;4.588;2022-08-20T00:52:11;21.30;88.30
26909;DHT22;14477;51.038;4.588;2022-08-20T00:54:43;21.30;88.30
26909;DHT22;14477;51.038;4.588;2022-08-20T00:57:23;21.20;88.20
26909;DHT22;14477;51.038;4.588;2022-08-20T00:59:51;21.20;88.30
26909;DHT22;14477;51.038;4.588;2022-08-20T01:02:18;21.20;88.30
26909;DHT22;14477;51.038;4.588;2022-08-20T01:04:45;21.10;88.20
26909;DHT22;14477;51.038;4.588;2022-08-20T01:07:20;21.10;88.20
26909;DHT22;14477;51.038;4.588;2022-08-20T01:09:50;21.00;88.30
26909;DHT22;14477;51.038;4.588;2022-08-20T01:12:16;21.00;88.30
26909;DHT22;14477;51.038;4.588;2022-08-20T01:14:44;21.00;88.40
26909;DHT22;14477;51.038;4.588;2022-08-20T01:17:14;20.90;88.40
26909;DHT22;14477;51.038;4.588;2022-08-20T01:19:53;20.90;88.40
26909;DHT22;14477;51.038;4.588;2022-08-20T01:22:29;20.90;88.50
26909;DHT22;14477;51.038;4.588;2022-08-20T01:25:28;20.80;88.50
26909;DHT22;14477;51.038;4.588;2022-08-20T01:27:57;20.80;88.50
26909;DHT22;14477;51.038;4.588;2022-08-20T01:30:25;20.80;88.50
26909;DHT22;14477;51.038;4.588;2022-08-20T01:32:52;20.80;88.30
26909;DHT22;14477;51.038;4.588;2022-08-20T01:35:21;20.70;88.30
26909;DHT22;14477;51.038;4.588;2022-08-20T01:37:47;20.60;88.20
26909;DHT22;14477;51.038;4.588;2022-08-20T01:40:16;20.60;88.20
26909;DHT22;14477;51.038;4.588;2022-08-20T01:42:46;20.60;88.30
26909;DHT22;14477;51.038;4.588;2022-08-20T01:45:14;20.50;88.30
26909;DHT22;14477;51.038;4.588;2022-08-20T01:47:40;20.50;88.40
26909;DHT22;14477;51.038;4.588;2022-08-20T01:50:17;20.50;88.40
26909;DHT22;14477;51.038;4.588;2022-08-20T01:52:50;20.40;88.40
26909;DHT22;14477;51.038;4.588;2022-08-20T01:55:19;20.40;88.50
26909;DHT22;14477;51.038;4.588;2022-08-20T01:57:45;20.30;88.40
26909;DHT22;14477;51.038;4.588;2022-08-20T02:00:15;20.30;88.40
26909;DHT22;14477;51.038;4.588;2022-08-20T02:02:41;20.20;88.40
26909;DHT22;14477;51.038;4.588;2022-08-20T02:05:07;20.20;88.60
26909;DHT22;14477;51.038;4.588;2022-08-20T02:07:33;20.10;88.60
26909;DHT22;14477;51.038;4.588;2022-08-20T02:09:59;20.10;88.50
26909;DHT22;14477;51.038;4.588;2022-08-20T02:12:25;20.00;88.60
26909;DHT22;14477;51.038;4.588;2022-08-20T02:14:52;20.00;88.60
26909;DHT22;14477;51.038;4.588;2022-08-20T02:17:20;20.00;88.70
26909;DHT22;14477;51.038;4.588;2022-08-20T02:19:59;19.90;88.70
26909;DHT22;14477;51.038;4.588;2022-08-20T02:22:39;19.90;88.70
26909;DHT22;14477;51.038;4.588;2022-08-20T02:25:08;19.80;88.70
26909;DHT22;14477;51.038;4.588;2022-08-20T02:27:35;19.80;88.70
26909;DHT22;14477;51.038;4.588;2022-08-20T02:30:04;19.80;88.80
26909;DHT22;14477;51.038;4.588;2022-08-20T02:32:39;19.70;88.80
26909;DHT22;14477;51.038;4.588;2022-08-20T02:35:07;19.70;88.90
26909;DHT22;14477;51.038;4.588;2022-08-20T02:37:34;19.70;88.90
26909;DHT22;14477;51.038;4.588;2022-08-20T02:40:00;19.70;88.90
26909;DHT22;14477;51.038;4.588;2022-08-20T02:42:26;19.60;88.90
26909;DHT22;14477;51.038;4.588;2022-08-20T02:44:52;19.60;89.20
26909;DHT22;14477;51.038;4.588;2022-08-20T02:47:19;19.60;89.00
26909;DHT22;14477;51.038;4.588;2022-08-20T02:49:44;19.60;89.10
26909;DHT22;14477;51.038;4.588;2022-08-20T02:52:10;19.50;89.00
26909;DHT22;14477;51.038;4.588;2022-08-20T02:54:36;19.50;89.10
26909;DHT22;14477;51.038;4.588;2022-08-20T02:57:02;19.50;89.10
26909;DHT22;14477;51.038;4.588;2022-08-20T02:59:29;19.40;89.20
26909;DHT22;14477;51.038;4.588;2022-08-20T03:01:54;19.40;89.30
26909;DHT22;14477;51.038;4.588;2022-08-20T03:04:20;19.40;89.50
26909;DHT22;14477;51.038;4.588;2022-08-20T03:06:46;19.40;89.80
26909;DHT22;14477;51.038;4.588;2022-08-20T03:09:12;19.40;90.00
26909;DHT22;14477;51.038;4.588;2022-08-20T03:11:37;19.40;90.00
26909;DHT22;14477;51.038;4.588;2022-08-20T03:14:05;19.40;90.10
26909;DHT22;14477;51.038;4.588;2022-08-20T03:16:31;19.40;90.20
26909;DHT22;14477;51.038;4.588;2022-08-20T03:18:57;19.40;90.20
26909;DHT22;14477;51.038;4.588;2022-08-20T03:21:23;19.40;90.20
26909;DHT22;14477;51.038;4.588;2022-08-20T03:23:48;19.40;90.30
26909;DHT22;14477;51.038;4.588;2022-08-20T03:26:14;19.40;90.30
26909;DHT22;14477;51.038;4.588;2022-08-20T03:28:40;19.40;90.40
26909;DHT22;14477;51.038;4.588;2022-08-20T03:31:07;19.50;90.50
26909;DHT22;14477;51.038;4.588;2022-08-20T03:33:33;19.50;90.40
26909;DHT22;14477;51.038;4.588;2022-08-20T03:35:59;19.50;90.50
26909;DHT22;14477;51.038;4.588;2022-08-20T03:38:25;19.50;90.40
26909;DHT22;14477;51.038;4.588;2022-08-20T03:40:51;19.50;90.40
26909;DHT22;14477;51.038;4.588;2022-08-20T03:43:17;19.50;90.40
26909;DHT22;14477;51.038;4.588;2022-08-20T03:45:44;19.50;90.30
26909;DHT22;14477;51.038;4.588;2022-08-20T03:48:13;19.50;90.30
26909;DHT22;14477;51.038;4.588;2022-08-20T03:50:40;19.50;90.30
26909;DHT22;14477;51.038;4.588;2022-08-20T03:53:07;19.50;90.20
26909;DHT22;14477;51.038;4.588;2022-08-20T03:55:34;19.50;90.10
26909;DHT22;14477;51.038;4.588;2022-08-20T03:58:02;19.50;90.20
26909;DHT22;14477;51.038;4.588;2022-08-20T04:00:36;19.50;90.20
26909;DHT22;14477;51.038;4.588;2022-08-20T04:03:02;19.50;90.20
26909;DHT22;14477;51.038;4.588;2022-08-20T04:05:30;19.50;90.30
26909;DHT22;14477;51.038;4.588;2022-08-20T04:07:57;19.40;90.30
26909;DHT22;14477;51.038;4.588;2022-08-20T04:10:24;19.40;90.30
26909;DHT22;14477;51.038;4.588;2022-08-20T04:12:50;19.40;90.30
26909;DHT22;14477;51.038;4.588;2022-08-20T04:15:17;19.40;90.30
26909;DHT22;14477;51.038;4.588;2022-08-20T04:17:45;19.30;90.30
26909;DHT22;14477;51.038;4.588;2022-08-20T04:20:13;19.40;90.20
26909;DHT22;14477;51.038;4.588;2022-08-20T04:22:39;19.30;90.10
26909;DHT22;14477;51.038;4.588;2022-08-20T04:25:06;19.30;90.10
26909;DHT22;14477;51.038;4.588;2022-08-20T04:27:36;19.30;90.10
26909;DHT22;14477;51.038;4.588;2022-08-20T04:30:04;19.30;90.20
26909;DHT22;14477;51.038;4.588;2022-08-20T04:32:30;19.30;90.30
26909;DHT22;14477;51.038;4.588;2022-08-20T04:34:57;19.30;90.30
26909;DHT22;14477;51.038;4.588;2022-08-20T04:37:23;19.20;90.40
26909;DHT22;14477;51.038;4.588;2022-08-20T04:39:49;19.20;90.50
26909;DHT22;14477;51.038;4.588;2022-08-20T04:42:35;19.20;90.50
26909;DHT22;14477;51.038;4.588;2022-08-20T04:45:02;19.20;90.50
26909;DHT22;14477;51.038;4.588;2022-08-20T04:47:27;19.30;90.60
26909;DHT22;14477;51.038;4.588;2022-08-20T04:49:53;19.30;90.70
26909;DHT22;14477;51.038;4.588;2022-08-20T04:52:25;19.30;90.70
26909;DHT22;14477;51.038;4.588;2022-08-20T04:54:51;19.30;90.80
26909;DHT22;14477;51.038;4.588;2022-08-20T04:57:17;19.30;90.70
26909;DHT22;14477;51.038;4.588;2022-08-20T04:59:43;19.30;90.70
26909;DHT22;14477;51.038;4.588;2022-08-20T05:02:09;19.30;90.70
26909;DHT22;14477;51.038;4.588;2022-08-20T05:04:36;19.30;90.70
26909;DHT22;14477;51.038;4.588;2022-08-20T05:07:02;19.30;90.80
26909;DHT22;14477;51.038;4.588;2022-08-20T05:09:28;19.40;90.80
26909;DHT22;14477;51.038;4.588;2022-08-20T05:11:56;19.30;90.80
26909;DHT22;14477;51.038;4.588;2022-08-20T05:14:22;19.40;90.80
26909;DHT22;14477;51.038;4.588;2022-08-20T05:16:47;19.40;90.80
26909;DHT22;14477;51.038;4.588;2022-08-20T05:19:15;19.40;90.80
26909;DHT22;14477;51.038;4.588;2022-08-20T05:21:41;19.40;90.80
26909;DHT22;14477;51.038;4.588;2022-08-20T05:24:07;19.40;90.80
26909;DHT22;14477;51.038;4.588;2022-08-20T05:26:34;19.40;90.80
26909;DHT22;14477;51.038;4.588;2022-08-20T05:29:00;19.40;90.80
26909;DHT22;14477;51.038;4.588;2022-08-20T05:31:29;19.40;90.80
26909;DHT22;14477;51.038;4.588;2022-08-20T05:33:56;19.40;90.90
26909;DHT22;14477;51.038;4.588;2022-08-20T05:36:22;19.50;90.80
26909;DHT22;14477;51.038;4.588;2022-08-20T05:38:47;19.40;90.80
26909;DHT22;14477;51.038;4.588;2022-08-20T05:41:13;19.50;90.90
26909;DHT22;14477;51.038;4.588;2022-08-20T05:43:39;19.50;90.90
26909;DHT22;14477;51.038;4.588;2022-08-20T05:46:05;19.40;90.90
26909;DHT22;14477;51.038;4.588;2022-08-20T05:48:31;19.50;90.90
26909;DHT22;14477;51.038;4.588;2022-08-20T05:50:59;19.40;90.90
26909;DHT22;14477;51.038;4.588;2022-08-20T05:53:25;19.40;91.00
26909;DHT22;14477;51.038;4.588;2022-08-20T05:55:52;19.40;91.10
26909;DHT22;14477;51.038;4.588;2022-08-20T05:58:27;19.40;91.00
26909;DHT22;14477;51.038;4.588;2022-08-20T06:00:55;19.50;90.90
26909;DHT22;14477;51.038;4.588;2022-08-20T06:03:21;19.50;91.10
26909;DHT22;14477;51.038;4.588;2022-08-20T06:06:06;19.50;91.10
26909;DHT22;14477;51.038;4.588;2022-08-20T06:08:33;19.50;91.00
26909;DHT22;14477;51.038;4.588;2022-08-20T06:10:59;19.50;91.10
26909;DHT22;14477;51.038;4.588;2022-08-20T06:13:24;19.50;91.10
26909;DHT22;14477;51.038;4.588;2022-08-20T06:15:52;19.50;91.10
26909;DHT22;14477;51.038;4.588;2022-08-20T06:18:17;19.50;91.20
26909;DHT22;14477;51.038;4.588;2022-08-20T06:20:43;19.50;91.60
26909;DHT22;14477;51.038;4.588;2022-08-20T06:23:10;19.50;91.20
26909;DHT22;14477;51.038;4.588;2022-08-20T06:25:36;19.50;91.20
26909;DHT22;14477;51.038;4.588;2022-08-20T06:28:03;19.60;91.30
26909;DHT22;14477;51.038;4.588;2022-08-20T06:30:29;19.60;91.30
26909;DHT22;14477;51.038;4.588;2022-08-20T06:32:55;19.60;91.40
26909;DHT22;14477;51.038;4.588;2022-08-20T06:35:21;19.60;91.40
26909;DHT22;14477;51.038;4.588;2022-08-20T06:37:47;19.60;91.40
26909;DHT22;14477;51.038;4.588;2022-08-20T06:40:20;19.60;91.40
26909;DHT22;14477;51.038;4.588;2022-08-20T06:42:47;19.70;91.40
26909;DHT22;14477;51.038;4.588;2022-08-20T06:45:17;19.70;91.40
26909;DHT22;14477;51.038;4.588;2022-08-20T06:47:45;19.70;91.40
26909;DHT22;14477;51.038;4.588;2022-08-20T06:50:15;19.80;91.50
26909;DHT22;14477;51.038;4.588;2022-08-20T06:52:41;19.80;91.50
26909;DHT22;14477;51.038;4.588;2022-08-20T06:55:09;19.80;91.60
26909;DHT22;14477;51.038;4.588;2022-08-20T06:57:36;19.80;91.50
26909;DHT22;14477;51.038;4.588;2022-08-20T07:00:08;19.90;91.60
26909;DHT22;14477;51.038;4.588;2022-08-20T07:02:34;19.90;91.50
26909;DHT22;14477;51.038;4.588;2022-08-20T07:05:02;19.90;91.60
26909;DHT22;14477;51.038;4.588;2022-08-20T07:07:28;20.00;91.70
26909;DHT22;14477;51.038;4.588;2022-08-20T07:10:05;20.00;91.80
26909;DHT22;14477;51.038;4.588;2022-08-20T07:12:31;20.10;91.70
26909;DHT22;14477;51.038;4.588;2022-08-20T07:14:59;20.10;91.90
26909;DHT22;14477;51.038;4.588;2022-08-20T07:17:24;20.20;91.90
26909;DHT22;14477;51.038;4.588;2022-08-20T07:19:50;20.30;92.10
26909;DHT22;14477;51.038;4.588;2022-08-20T07:22:16;20.40;92.10
26909;DHT22;14477;51.038;4.588;2022-08-20T07:24:42;20.40;92.30
26909;DHT22;14477;51.038;4.588;2022-08-20T07:27:08;20.50;92.50
26909;DHT22;14477;51.038;4.588;2022-08-20T07:29:34;20.60;92.50
26909;DHT22;14477;51.038;4.588;2022-08-20T07:32:18;20.80;92.50
26909;DHT22;14477;51.038;4.588;2022-08-20T07:35:06;20.90;92.50
26909;DHT22;14477;51.038;4.588;2022-08-20T07:37:37;21.10;92.50
26909;DHT22;14477;51.038;4.588;2022-08-20T07:40:05;21.20;92.40
26909;DHT22;14477;51.038;4.588;2022-08-20T07:42:31;21.30;92.50
26909;DHT22;14477;51.038;4.588;2022-08-20T07:44:56;21.40;92.40
26909;DHT22;14477;51.038;4.588;2022-08-20T07:47:22;21.50;92.30
26909;DHT22;14477;51.038;4.588;2022-08-20T07:49:48;21.60;92.30
26909;DHT22;14477;51.038;4.588;2022-08-20T07:52:14;21.70;92.50
26909;DHT22;14477;51.038;4.588;2022-08-20T07:54:40;21.80;92.40
26909;DHT22;14477;51.038;4.588;2022-08-20T07:57:07;21.90;92.40
26909;DHT22;14477;51.038;4.588;2022-08-20T07:59:35;22.10;92.80
26909;DHT22;14477;51.038;4.588;2022-08-20T08:02:02;22.30;93.00
26909;DHT22;14477;51.038;4.588;2022-08-20T08:04:28;22.50;93.40
26909;DHT22;14477;51.038;4.588;2022-08-20T08:06:54;22.70;93.70
26909;DHT22;14477;51.038;4.588;2022-08-20T08:09:24;23.00;93.90
26909;DHT22;14477;51.038;4.588;2022-08-20T08:11:51;23.20;93.80
26909;DHT22;14477;51.038;4.588;2022-08-20T08:14:23;23.50;93.90
26909;DHT22;14477;51.038;4.588;2022-08-20T08:16:53;23.80;94.00
26909;DHT22;14477;51.038;4.588;2022-08-20T08:19:20;24.20;94.30
26909;DHT22;14477;51.038;4.588;2022-08-20T08:21:46;24.50;94.70
26909;DHT22;14477;51.038;4.588;2022-08-20T08:24:12;25.00;95.30
26909;DHT22;14477;51.038;4.588;2022-08-20T08:26:38;25.40;95.60
26909;DHT22;14477;51.038;4.588;2022-08-20T08:29:03;25.90;95.50
26909;DHT22;14477;51.038;4.588;2022-08-20T08:31:32;26.50;95.30
26909;DHT22;14477;51.038;4.588;2022-08-20T08:33:58;27.00;94.70
26909;DHT22;14477;51.038;4.588;2022-08-20T08:36:25;27.50;94.20
26909;DHT22;14477;51.038;4.588;2022-08-20T08:38:53;28.00;93.50
26909;DHT22;14477;51.038;4.588;2022-08-20T08:41:33;28.50;93.30
26909;DHT22;14477;51.038;4.588;2022-08-20T08:44:06;29.00;90.80
26909;DHT22;14477;51.038;4.588;2022-08-20T08:46:41;29.40;90.20
26909;DHT22;14477;51.038;4.588;2022-08-20T08:49:12;29.90;90.00
26909;DHT22;14477;51.038;4.588;2022-08-20T08:51:56;30.30;90.20
26909;DHT22;14477;51.038;4.588;2022-08-20T08:54:27;30.70;88.00
26909;DHT22;14477;51.038;4.588;2022-08-20T08:56:54;31.10;88.80
26909;DHT22;14477;51.038;4.588;2022-08-20T08:59:20;31.50;89.60
26909;DHT22;14477;51.038;4.588;2022-08-20T09:01:53;31.70;89.00
26909;DHT22;14477;51.038;4.588;2022-08-20T09:04:19;32.10;87.40
26909;DHT22;14477;51.038;4.588;2022-08-20T09:06:47;32.50;87.90
26909;DHT22;14477;51.038;4.588;2022-08-20T09:09:18;32.70;86.80
26909;DHT22;14477;51.038;4.588;2022-08-20T09:11:49;33.00;81.80
26909;DHT22;14477;51.038;4.588;2022-08-20T09:14:16;33.30;83.10
26909;DHT22;14477;51.038;4.588;2022-08-20T09:16:43;33.50;84.50
26909;DHT22;14477;51.038;4.588;2022-08-20T09:19:09;33.70;84.30
26909;DHT22;14477;51.038;4.588;2022-08-20T09:21:35;33.80;82.70
26909;DHT22;14477;51.038;4.588;2022-08-20T09:24:01;34.00;81.70
26909;DHT22;14477;51.038;4.588;2022-08-20T09:26:27;34.10;82.00
26909;DHT22;14477;51.038;4.588;2022-08-20T09:28:53;34.30;82.60
26909;DHT22;14477;51.038;4.588;2022-08-20T09:31:18;34.60;82.70
26909;DHT22;14477;51.038;4.588;2022-08-20T09:33:44;34.90;82.10
26909;DHT22;14477;51.038;4.588;2022-08-20T09:36:10;35.20;79.90
26909;DHT22;14477;51.038;4.588;2022-08-20T09:38:35;35.30;77.50
26909;DHT22;14477;51.038;4.588;2022-08-20T09:41:01;35.40;76.80
26909;DHT22;14477;51.038;4.588;2022-08-20T09:43:27;35.40;75.30
26909;DHT22;14477;51.038;4.588;2022-08-20T09:45:53;35.30;73.30
26909;DHT22;14477;51.038;4.588;2022-08-20T09:48:18;35.00;71.10
26909;DHT22;14477;51.038;4.588;2022-08-20T09:50:47;34.70;71.30
26909;DHT22;14477;51.038;4.588;2022-08-20T09:53:14;34.60;71.10
26909;DHT22;14477;51.038;4.588;2022-08-20T09:55:42;34.50;73.90
26909;DHT22;14477;51.038;4.588;2022-08-20T10:00:47;34.30;65.90
26909;DHT22;14477;51.038;4.588;2022-08-20T10:03:13;34.10;70.40
26909;DHT22;14477;51.038;4.588;2022-08-20T10:05:39;34.00;72.00
26909;DHT22;14477;51.038;4.588;2022-08-20T10:08:07;34.00;73.20
26909;DHT22;14477;51.038;4.588;2022-08-20T10:10:33;34.10;71.50
26909;DHT22;14477;51.038;4.588;2022-08-20T10:12:59;34.00;70.10
26909;DHT22;14477;51.038;4.588;2022-08-20T10:15:25;33.90;68.10
26909;DHT22;14477;51.038;4.588;2022-08-20T10:17:51;33.80;66.70
26909;DHT22;14477;51.038;4.588;2022-08-20T10:20:16;33.50;65.90
26909;DHT22;14477;51.038;4.588;2022-08-20T10:22:43;33.30;65.10
26909;DHT22;14477;51.038;4.588;2022-08-20T10:25:10;33.10;64.80
26909;DHT22;14477;51.038;4.588;2022-08-20T10:27:36;32.80;63.90
26909;DHT22;14477;51.038;4.588;2022-08-20T10:30:04;32.70;65.00
26909;DHT22;14477;51.038;4.588;2022-08-20T10:32:30;32.60;66.40
26909;DHT22;14477;51.038;4.588;2022-08-20T10:34:56;32.70;68.90
26909;DHT22;14477;51.038;4.588;2022-08-20T10:37:23;32.90;68.80
26909;DHT22;14477;51.038;4.588;2022-08-20T10:39:50;33.20;68.60
26909;DHT22;14477;51.038;4.588;2022-08-20T10:42:16;33.40;66.40
26909;DHT22;14477;51.038;4.588;2022-08-20T10:44:42;33.50;67.00
26909;DHT22;14477;51.038;4.588;2022-08-20T10:49:46;34.00;63.70
26909;DHT22;14477;51.038;4.588;2022-08-20T10:52:12;34.40;69.40
26909;DHT22;14477;51.038;4.588;2022-08-20T10:54:38;34.80;69.80
26909;DHT22;14477;51.038;4.588;2022-08-20T10:57:08;35.30;70.30
26909;DHT22;14477;51.038;4.588;2022-08-20T10:59:39;35.70;69.60
26909;DHT22;14477;51.038;4.588;2022-08-20T11:02:05;36.20;65.50
26909;DHT22;14477;51.038;4.588;2022-08-20T11:04:31;36.60;67.40
26909;DHT22;14477;51.038;4.588;2022-08-20T11:06:57;36.80;64.50
26909;DHT22;14477;51.038;4.588;2022-08-20T11:09:23;36.70;61.30
26909;DHT22;14477;51.038;4.588;2022-08-20T11:11:49;36.50;59.00
26909;DHT22;14477;51.038;4.588;2022-08-20T11:14:14;36.20;57.40
26909;DHT22;14477;51.038;4.588;2022-08-20T11:16:40;35.80;56.70
26909;DHT22;14477;51.038;4.588;2022-08-20T11:19:05;35.50;58.40
26909;DHT22;14477;51.038;4.588;2022-08-20T11:21:31;35.30;59.30
26909;DHT22;14477;51.038;4.588;2022-08-20T11:23:57;35.40;60.80
26909;DHT22;14477;51.038;4.588;2022-08-20T11:26:24;35.50;61.70
26909;DHT22;14477;51.038;4.588;2022-08-20T11:28:49;35.80;61.40
26909;DHT22;14477;51.038;4.588;2022-08-20T11:31:15;36.00;61.80
26909;DHT22;14477;51.038;4.588;2022-08-20T11:33:41;36.30;61.30
26909;DHT22;14477;51.038;4.588;2022-08-20T11:36:07;36.60;59.90
26909;DHT22;14477;51.038;4.588;2022-08-20T11:38:33;36.60;58.70
26909;DHT22;14477;51.038;4.588;2022-08-20T11:40:58;36.80;58.50
26909;DHT22;14477;51.038;4.588;2022-08-20T11:43:24;36.90;57.90
26909;DHT22;14477;51.038;4.588;2022-08-20T11:45:54;36.90;56.40
26909;DHT22;14477;51.038;4.588;2022-08-20T11:48:20;37.00;55.00
26909;DHT22;14477;51.038;4.588;2022-08-20T11:50:46;37.00;57.10
26909;DHT22;14477;51.038;4.588;2022-08-20T11:53:12;37.10;56.00
26909;DHT22;14477;51.038;4.588;2022-08-20T11:55:38;37.10;54.60
26909;DHT22;14477;51.038;4.588;2022-08-20T11:58:05;36.80;52.90
26909;DHT22;14477;51.038;4.588;2022-08-20T12:00:31;36.50;51.40
26909;DHT22;14477;51.038;4.588;2022-08-20T12:03:02;36.20;51.30
26909;DHT22;14477;51.038;4.588;2022-08-20T12:05:29;35.90;52.20
26909;DHT22;14477;51.038;4.588;2022-08-20T12:07:55;35.90;53.50
26909;DHT22;14477;51.038;4.588;2022-08-20T12:10:21;35.90;53.90
26909;DHT22;14477;51.038;4.588;2022-08-20T12:12:49;36.00;54.40
26909;DHT22;14477;51.038;4.588;2022-08-20T12:15:14;36.10;53.50
26909;DHT22;14477;51.038;4.588;2022-08-20T12:17:40;36.10;51.80
26909;DHT22;14477;51.038;4.588;2022-08-20T12:20:09;35.90;50.60
26909;DHT22;14477;51.038;4.588;2022-08-20T12:22:35;35.80;50.50
26909;DHT22;14477;51.038;4.588;2022-08-20T12:25:01;35.80;51.60
26909;DHT22;14477;51.038;4.588;2022-08-20T12:27:29;35.80;52.60
26909;DHT22;14477;51.038;4.588;2022-08-20T12:29:57;36.00;52.80
26909;DHT22;14477;51.038;4.588;2022-08-20T12:32:26;36.20;52.30
26909;DHT22;14477;51.038;4.588;2022-08-20T12:34:53;36.30;51.80
26909;DHT22;14477;51.038;4.588;2022-08-20T12:37:22;36.30;50.60
26909;DHT22;14477;51.038;4.588;2022-08-20T12:39:50;36.30;49.50
26909;DHT22;14477;51.038;4.588;2022-08-20T12:42:17;36.20;49.50
26909;DHT22;14477;51.038;4.588;2022-08-20T12:44:43;36.20;50.60
26909;DHT22;14477;51.038;4.588;2022-08-20T12:49:35;36.10;49.60
26909;DHT22;14477;51.038;4.588;2022-08-20T12:52:01;35.90;48.30
26909;DHT22;14477;51.038;4.588;2022-08-20T12:54:27;35.80;49.10
26909;DHT22;14477;51.038;4.588;2022-08-20T12:56:53;35.80;50.10
26909;DHT22;14477;51.038;4.588;2022-08-20T12:59:24;35.80;49.80
26909;DHT22;14477;51.038;4.588;2022-08-20T13:01:51;35.70;48.00
26909;DHT22;14477;51.038;4.588;2022-08-20T13:04:17;35.50;48.60
26909;DHT22;14477;51.038;4.588;2022-08-20T13:06:43;35.50;49.30
26909;DHT22;14477;51.038;4.588;2022-08-20T13:09:09;35.50;49.60
26909;DHT22;14477;51.038;4.588;2022-08-20T13:11:36;35.60;49.80
26909;DHT22;14477;51.038;4.588;2022-08-20T13:14:02;35.80;49.50
26909;DHT22;14477;51.038;4.588;2022-08-20T13:16:27;35.80;49.30
26909;DHT22;14477;51.038;4.588;2022-08-20T13:18:53;36.00;49.80
26909;DHT22;14477;51.038;4.588;2022-08-20T13:21:19;36.20;49.10
26909;DHT22;14477;51.038;4.588;2022-08-20T13:23:44;36.10;47.70
26909;DHT22;14477;51.038;4.588;2022-08-20T13:26:10;36.00;47.20
26909;DHT22;14477;51.038;4.588;2022-08-20T13:28:36;36.00;47.50
26909;DHT22;14477;51.038;4.588;2022-08-20T13:31:02;36.00;48.50
26909;DHT22;14477;51.038;4.588;2022-08-20T13:33:28;36.20;48.80
26909;DHT22;14477;51.038;4.588;2022-08-20T13:35:55;36.30;48.50
26909;DHT22;14477;51.038;4.588;2022-08-20T13:38:21;36.50;48.20
26909;DHT22;14477;51.038;4.588;2022-08-20T13:40:47;36.70;48.00
26909;DHT22;14477;51.038;4.588;2022-08-20T13:43:13;36.80;47.30
26909;DHT22;14477;51.038;4.588;2022-08-20T13:45:40;36.80;47.10
26909;DHT22;14477;51.038;4.588;2022-08-20T13:48:06;36.90;46.70
26909;DHT22;14477;51.038;4.588;2022-08-20T13:50:33;37.00;46.70
26909;DHT22;14477;51.038;4.588;2022-08-20T13:52:59;37.00;46.80
26909;DHT22;14477;51.038;4.588;2022-08-20T13:55:26;37.00;46.20
26909;DHT22;14477;51.038;4.588;2022-08-20T13:57:52;37.00;45.40
26909;DHT22;14477;51.038;4.588;2022-08-20T14:00:29;36.90;45.00
26909;DHT22;14477;51.038;4.588;2022-08-20T14:02:55;36.70;43.70
26909;DHT22;14477;51.038;4.588;2022-08-20T14:05:21;36.60;44.50
26909;DHT22;14477;51.038;4.588;2022-08-20T14:07:47;36.40;44.50
26909;DHT22;14477;51.038;4.588;2022-08-20T14:10:19;36.30;44.70
26909;DHT22;14477;51.038;4.588;2022-08-20T14:12:46;36.20;43.10
26909;DHT22;14477;51.038;4.588;2022-08-20T14:15:12;36.00;43.80
26909;DHT22;14477;51.038;4.588;2022-08-20T14:17:40;35.80;44.60
26909;DHT22;14477;51.038;4.588;2022-08-20T14:20:14;35.70;43.60
26909;DHT22;14477;51.038;4.588;2022-08-20T14:22:41;35.50;42.20
26909;DHT22;14477;51.038;4.588;2022-08-20T14:25:08;35.30;43.80
26909;DHT22;14477;51.038;4.588;2022-08-20T14:27:34;35.20;44.10
26909;DHT22;14477;51.038;4.588;2022-08-20T14:30:02;35.10;44.30
26909;DHT22;14477;51.038;4.588;2022-08-20T14:32:28;34.90;43.80
26909;DHT22;14477;51.038;4.588;2022-08-20T14:34:54;34.80;43.90
26909;DHT22;14477;51.038;4.588;2022-08-20T14:37:29;34.70;44.20
26909;DHT22;14477;51.038;4.588;2022-08-20T14:39:56;34.60;43.00
26909;DHT22;14477;51.038;4.588;2022-08-20T14:42:25;34.40;43.40
26909;DHT22;14477;51.038;4.588;2022-08-20T14:44:54;34.30;42.70
26909;DHT22;14477;51.038;4.588;2022-08-20T14:47:27;34.10;43.60
26909;DHT22;14477;51.038;4.588;2022-08-20T14:49:55;34.10;43.10
26909;DHT22;14477;51.038;4.588;2022-08-20T14:52:22;34.00;44.20
26909;DHT22;14477;51.038;4.588;2022-08-20T14:54:49;34.10;44.30
26909;DHT22;14477;51.038;4.588;2022-08-20T14:57:17;34.00;44.00
26909;DHT22;14477;51.038;4.588;2022-08-20T14:59:44;33.90;43.10
26909;DHT22;14477;51.038;4.588;2022-08-20T15:02:12;33.80;43.10
26909;DHT22;14477;51.038;4.588;2022-08-20T15:04:38;33.60;42.90
26909;DHT22;14477;51.038;4.588;2022-08-20T15:07:06;33.40;42.90
26909;DHT22;14477;51.038;4.588;2022-08-20T15:09:34;33.20;42.70
26909;DHT22;14477;51.038;4.588;2022-08-20T15:12:00;32.90;43.00
26909;DHT22;14477;51.038;4.588;2022-08-20T15:14:27;32.70;42.90
26909;DHT22;14477;51.038;4.588;2022-08-20T15:16:53;32.50;42.70
26909;DHT22;14477;51.038;4.588;2022-08-20T15:19:19;32.30;42.80
26909;DHT22;14477;51.038;4.588;2022-08-20T15:21:45;32.10;42.80
26909;DHT22;14477;51.038;4.588;2022-08-20T15:24:12;31.90;42.90
26909;DHT22;14477;51.038;4.588;2022-08-20T15:26:39;31.70;43.30
26909;DHT22;14477;51.038;4.588;2022-08-20T15:29:04;31.60;44.10
26909;DHT22;14477;51.038;4.588;2022-08-20T15:31:30;31.50;44.50
26909;DHT22;14477;51.038;4.588;2022-08-20T15:33:56;31.60;44.70
26909;DHT22;14477;51.038;4.588;2022-08-20T15:36:22;31.60;44.70
26909;DHT22;14477;51.038;4.588;2022-08-20T15:38:48;31.60;44.70